Huvudsida
METAR-TAF:

METAR-TAF

Flygplatser :

Yasuj Airport

Yasuj, Iran

latitud: 30-41-49N, longitud: 051-33E, höjd: 1825 m

Aktuellt väderrapport

Denna rapport gjordes för 34 minuter sedan, klockan 20:00 UTC
Stilla vind
Temperatur 4°C
Fuktighet 44%
Tryck 1025 hPa
Sikt 10 km eller mer
Inga moln under 1 500 m eller inga cumulonimbus

METAR: OISY 112000Z 00000KT CAVOK 04/M07 Q1025

Tid: 00:04 (20:34 UTC)


TAF: saknas

Aktuella väderrapporter och prognoser från 4000 flygplatser (METAR- och TAF-rapporter).

De tillgängliga stationerna syns som gula och röda prickar på kartan.

För musen över prickarna för att se namnen på stationerna.

Klicka sedan för att få väderrapporter och prognoser.

För att ändra kartan: Klicka på de gröna knapparna med ett svart kors på för att zooma in; den gröna knappen med ett streck på för att zooma ut; eller på de gröna pilarna för angränsande kartor.


METAR-TAF: